sensor_id;sensor_type;location;lat;lon;timestamp;pressure;altitude;pressure_sealevel;temperature;humidity
57562;BME280;43397;51.530;5.974;2022-08-07T00:01:23;102278.91;;;16.08;73.28
57562;BME280;43397;51.530;5.974;2022-08-07T00:03:49;102284.34;;;15.97;74.28
57562;BME280;43397;51.530;5.974;2022-08-07T00:06:15;102277.19;;;16.00;74.09
57562;BME280;43397;51.530;5.974;2022-08-07T00:08:41;102278.97;;;15.98;74.15
57562;BME280;43397;51.530;5.974;2022-08-07T00:11:08;102278.97;;;15.95;74.67
57562;BME280;43397;51.530;5.974;2022-08-07T00:13:34;102276.22;;;16.09;73.75
57562;BME280;43397;51.530;5.974;2022-08-07T00:16:00;102271.81;;;15.97;74.54
57562;BME280;43397;51.530;5.974;2022-08-07T00:18:27;102271.84;;;15.94;74.66
57562;BME280;43397;51.530;5.974;2022-08-07T00:20:56;102269.22;;;15.87;74.51
57562;BME280;43397;51.530;5.974;2022-08-07T00:23:22;102264.78;;;15.82;76.11
57562;BME280;43397;51.530;5.974;2022-08-07T00:25:48;102273.84;;;15.60;76.56
57562;BME280;43397;51.530;5.974;2022-08-07T00:28:15;102264.88;;;15.64;76.57
57562;BME280;43397;51.530;5.974;2022-08-07T00:30:41;102253.22;;;15.77;76.10
57562;BME280;43397;51.530;5.974;2022-08-07T00:33:07;102263.09;;;15.63;77.31
57562;BME280;43397;51.530;5.974;2022-08-07T00:35:33;102257.69;;;15.77;76.12
57562;BME280;43397;51.530;5.974;2022-08-07T00:37:59;102262.19;;;15.67;76.24
57562;BME280;43397;51.530;5.974;2022-08-07T00:40:26;102258.56;;;15.77;75.79
57562;BME280;43397;51.530;5.974;2022-08-07T00:42:51;102251.44;;;15.75;76.01
57562;BME280;43397;51.530;5.974;2022-08-07T00:45:19;102248.78;;;15.72;76.23
57562;BME280;43397;51.530;5.974;2022-08-07T00:47:45;102246.97;;;15.71;75.96
57562;BME280;43397;51.530;5.974;2022-08-07T00:50:10;102245.19;;;15.70;76.11
57562;BME280;43397;51.530;5.974;2022-08-07T00:52:36;102243.56;;;15.46;77.71
57562;BME280;43397;51.530;5.974;2022-08-07T00:55:02;102237.31;;;15.47;77.69
57562;BME280;43397;51.530;5.974;2022-08-07T00:57:29;102234.69;;;15.33;78.07
57562;BME280;43397;51.530;5.974;2022-08-07T00:59:54;102239.03;;;15.54;77.08
57562;BME280;43397;51.530;5.974;2022-08-07T01:02:22;102235.59;;;15.35;78.14
57562;BME280;43397;51.530;5.974;2022-08-07T01:04:48;102243.44;;;15.62;76.86
57562;BME280;43397;51.530;5.974;2022-08-07T01:07:14;102229.22;;;15.57;76.75
57562;BME280;43397;51.530;5.974;2022-08-07T01:09:41;102232.81;;;15.53;77.33
57562;BME280;43397;51.530;5.974;2022-08-07T01:12:07;102233.78;;;15.37;78.25
57562;BME280;43397;51.530;5.974;2022-08-07T01:14:33;102227.59;;;15.24;78.59
57562;BME280;43397;51.530;5.974;2022-08-07T01:16:59;102223.97;;;15.36;77.64
57562;BME280;43397;51.530;5.974;2022-08-07T01:19:28;102222.19;;;15.35;78.38
57562;BME280;43397;51.530;5.974;2022-08-07T01:21:55;102223.09;;;15.35;78.20
57562;BME280;43397;51.530;5.974;2022-08-07T01:24:21;102225.78;;;15.31;78.20
57562;BME280;43397;51.530;5.974;2022-08-07T01:26:49;102221.34;;;15.30;78.11
57562;BME280;43397;51.530;5.974;2022-08-07T01:29:16;102221.44;;;15.10;79.30
57562;BME280;43397;51.530;5.974;2022-08-07T01:31:42;102223.19;;;15.20;78.69
57562;BME280;43397;51.530;5.974;2022-08-07T01:34:07;102225.91;;;15.11;79.57
57562;BME280;43397;51.530;5.974;2022-08-07T01:36:36;102229.50;;;15.02;79.70
57562;BME280;43397;51.530;5.974;2022-08-07T01:39:03;102219.69;;;14.98;79.75
57562;BME280;43397;51.530;5.974;2022-08-07T01:41:30;102217.03;;;14.98;80.39
57562;BME280;43397;51.530;5.974;2022-08-07T01:43:56;102216.16;;;14.91;80.88
57562;BME280;43397;51.530;5.974;2022-08-07T01:46:21;102218.78;;;15.04;80.17
57562;BME280;43397;51.530;5.974;2022-08-07T01:48:48;102218.78;;;15.07;80.23
57562;BME280;43397;51.530;5.974;2022-08-07T01:51:18;102206.41;;;14.78;82.22
57562;BME280;43397;51.530;5.974;2022-08-07T01:53:46;102208.19;;;14.80;81.96
57562;BME280;43397;51.530;5.974;2022-08-07T01:56:17;102206.38;;;14.92;80.83
57562;BME280;43397;51.530;5.974;2022-08-07T01:58:49;102199.19;;;14.95;81.38
57562;BME280;43397;51.530;5.974;2022-08-07T02:01:21;102202.94;;;14.56;82.64
57562;BME280;43397;51.530;5.974;2022-08-07T02:03:52;102204.66;;;14.75;81.69
57562;BME280;43397;51.530;5.974;2022-08-07T02:06:22;102197.47;;;14.84;81.23
57562;BME280;43397;51.530;5.974;2022-08-07T02:08:50;102205.53;;;14.71;82.19
57562;BME280;43397;51.530;5.974;2022-08-07T02:11:18;102203.75;;;14.81;81.88
57562;BME280;43397;51.530;5.974;2022-08-07T02:13:48;102206.44;;;14.67;82.56
57562;BME280;43397;51.530;5.974;2022-08-07T02:16:15;102200.22;;;14.51;84.06
57562;BME280;43397;51.530;5.974;2022-08-07T02:18:44;102201.16;;;14.59;84.33
57562;BME280;43397;51.530;5.974;2022-08-07T02:21:12;102200.25;;;14.62;83.51
57562;BME280;43397;51.530;5.974;2022-08-07T02:23:39;102202.81;;;14.82;82.73
57562;BME280;43397;51.530;5.974;2022-08-07T02:26:07;102188.63;;;14.68;83.23
57562;BME280;43397;51.530;5.974;2022-08-07T02:28:36;102196.66;;;14.66;83.35
57562;BME280;43397;51.530;5.974;2022-08-07T02:31:04;102199.38;;;14.55;84.01
57562;BME280;43397;51.530;5.974;2022-08-07T02:33:32;102193.97;;;14.63;83.53
57562;BME280;43397;51.530;5.974;2022-08-07T02:35:59;102193.16;;;14.29;85.25
57562;BME280;43397;51.530;5.974;2022-08-07T02:38:27;102194.06;;;14.23;86.70
57562;BME280;43397;51.530;5.974;2022-08-07T02:40:54;102188.69;;;14.38;85.03
57562;BME280;43397;51.530;5.974;2022-08-07T02:43:21;102198.50;;;14.55;83.74
57562;BME280;43397;51.530;5.974;2022-08-07T02:45:50;102195.75;;;14.63;83.47
57562;BME280;43397;51.530;5.974;2022-08-07T02:48:18;102202.94;;;14.57;83.61
57562;BME280;43397;51.530;5.974;2022-08-07T02:50:46;102194.00;;;14.55;84.01
57562;BME280;43397;51.530;5.974;2022-08-07T02:53:20;102190.47;;;14.55;83.99
57562;BME280;43397;51.530;5.974;2022-08-07T02:55:46;102194.88;;;14.44;84.96
57562;BME280;43397;51.530;5.974;2022-08-07T02:58:17;102191.41;;;14.11;86.84
57562;BME280;43397;51.530;5.974;2022-08-07T03:00:44;102182.50;;;13.89;87.90
57562;BME280;43397;51.530;5.974;2022-08-07T03:03:14;102178.91;;;14.24;85.69
57562;BME280;43397;51.530;5.974;2022-08-07T03:05:40;102184.25;;;14.24;85.71
57562;BME280;43397;51.530;5.974;2022-08-07T03:08:07;102192.28;;;14.13;86.10
57562;BME280;43397;51.530;5.974;2022-08-07T03:10:33;102184.31;;;14.07;86.93
57562;BME280;43397;51.530;5.974;2022-08-07T03:13:00;102187.84;;;14.01;87.59
57562;BME280;43397;51.530;5.974;2022-08-07T03:15:27;102183.38;;;14.06;87.65
57562;BME280;43397;51.530;5.974;2022-08-07T03:17:54;102186.09;;;14.05;88.26
57562;BME280;43397;51.530;5.974;2022-08-07T03:20:22;102191.44;;;13.89;89.08
57562;BME280;43397;51.530;5.974;2022-08-07T03:22:49;102186.97;;;13.90;88.56
57562;BME280;43397;51.530;5.974;2022-08-07T03:25:17;102187.88;;;13.69;89.58
57562;BME280;43397;51.530;5.974;2022-08-07T03:27:44;102186.09;;;13.46;91.80
57562;BME280;43397;51.530;5.974;2022-08-07T03:30:11;102179.84;;;13.89;89.35
57562;BME280;43397;51.530;5.974;2022-08-07T03:32:38;102183.41;;;13.92;88.71
57562;BME280;43397;51.530;5.974;2022-08-07T03:35:08;102181.66;;;13.59;90.55
57562;BME280;43397;51.530;5.974;2022-08-07T03:37:38;102186.09;;;13.75;90.03
57562;BME280;43397;51.530;5.974;2022-08-07T03:40:06;102184.28;;;13.91;89.11
57562;BME280;43397;51.530;5.974;2022-08-07T03:42:33;102186.09;;;13.89;89.21
57562;BME280;43397;51.530;5.974;2022-08-07T03:45:00;102184.31;;;13.88;89.77
57562;BME280;43397;51.530;5.974;2022-08-07T03:47:26;102195.88;;;13.78;90.12
57562;BME280;43397;51.530;5.974;2022-08-07T03:49:53;102189.66;;;13.82;89.06
57562;BME280;43397;51.530;5.974;2022-08-07T03:52:21;102191.44;;;13.63;91.22
57562;BME280;43397;51.530;5.974;2022-08-07T03:54:49;102186.09;;;13.60;91.77
57562;BME280;43397;51.530;5.974;2022-08-07T03:57:16;102192.31;;;13.82;90.46
57562;BME280;43397;51.530;5.974;2022-08-07T03:59:44;102187.84;;;13.89;90.36
57562;BME280;43397;51.530;5.974;2022-08-07T04:02:10;102186.97;;;13.79;90.39
57562;BME280;43397;51.530;5.974;2022-08-07T04:04:36;102186.97;;;13.64;91.08
57562;BME280;43397;51.530;5.974;2022-08-07T04:07:03;102190.53;;;13.64;90.82
57562;BME280;43397;51.530;5.974;2022-08-07T04:09:30;102184.28;;;13.37;93.21
57562;BME280;43397;51.530;5.974;2022-08-07T04:11:58;102185.19;;;13.47;92.40
57562;BME280;43397;51.530;5.974;2022-08-07T04:14:25;102180.66;;;13.23;93.54
57562;BME280;43397;51.530;5.974;2022-08-07T04:16:54;102186.06;;;13.38;92.37
57562;BME280;43397;51.530;5.974;2022-08-07T04:19:20;102187.84;;;13.49;92.79
57562;BME280;43397;51.530;5.974;2022-08-07T04:21:47;102184.28;;;13.56;91.59
57562;BME280;43397;51.530;5.974;2022-08-07T04:24:13;102192.31;;;13.67;90.97
57562;BME280;43397;51.530;5.974;2022-08-07T04:26:40;102193.22;;;13.86;90.15
57562;BME280;43397;51.530;5.974;2022-08-07T04:29:07;102199.44;;;13.92;88.81
57562;BME280;43397;51.530;5.974;2022-08-07T04:31:34;102198.56;;;13.90;89.08
57562;BME280;43397;51.530;5.974;2022-08-07T04:34:01;102199.47;;;13.83;89.24
57562;BME280;43397;51.530;5.974;2022-08-07T04:36:27;102208.38;;;13.70;90.62
57562;BME280;43397;51.530;5.974;2022-08-07T04:38:53;102203.00;;;13.54;91.74
57562;BME280;43397;51.530;5.974;2022-08-07T04:41:18;102196.78;;;13.75;90.48
57562;BME280;43397;51.530;5.974;2022-08-07T04:43:44;102202.13;;;13.83;90.48
57562;BME280;43397;51.530;5.974;2022-08-07T04:46:15;102203.91;;;13.87;89.98
57562;BME280;43397;51.530;5.974;2022-08-07T04:48:47;102204.78;;;13.91;89.74
57562;BME280;43397;51.530;5.974;2022-08-07T04:51:20;102216.38;;;13.77;90.23
57562;BME280;43397;51.530;5.974;2022-08-07T04:53:53;102203.00;;;13.77;90.39
57562;BME280;43397;51.530;5.974;2022-08-07T04:56:31;102207.44;;;13.74;90.43
57562;BME280;43397;51.530;5.974;2022-08-07T04:59:05;102216.34;;;13.61;91.13
57562;BME280;43397;51.530;5.974;2022-08-07T05:01:40;102215.47;;;13.82;90.81
57562;BME280;43397;51.530;5.974;2022-08-07T05:04:10;102211.94;;;13.87;90.42
57562;BME280;43397;51.530;5.974;2022-08-07T05:06:43;102203.91;;;13.98;89.60
57562;BME280;43397;51.530;5.974;2022-08-07T05:09:19;102211.03;;;13.62;92.08
57562;BME280;43397;51.530;5.974;2022-08-07T05:11:49;102207.44;;;14.08;92.47
57562;BME280;43397;51.530;5.974;2022-08-07T05:14:18;102213.56;;;14.77;90.55
57562;BME280;43397;51.530;5.974;2022-08-07T05:16:48;102215.41;;;14.51;85.54
57562;BME280;43397;51.530;5.974;2022-08-07T05:19:19;102214.56;;;14.09;89.31
57562;BME280;43397;51.530;5.974;2022-08-07T05:21:50;102228.84;;;14.09;88.62
57562;BME280;43397;51.530;5.974;2022-08-07T05:24:18;102219.94;;;14.24;88.27
57562;BME280;43397;51.530;5.974;2022-08-07T05:26:46;102224.38;;;13.87;90.62
57562;BME280;43397;51.530;5.974;2022-08-07T05:29:14;102228.84;;;13.91;90.76
57562;BME280;43397;51.530;5.974;2022-08-07T05:31:43;102225.28;;;13.90;91.51
57562;BME280;43397;51.530;5.974;2022-08-07T05:34:11;102224.38;;;13.93;91.43
57562;BME280;43397;51.530;5.974;2022-08-07T05:36:39;102219.94;;;14.12;89.67
57562;BME280;43397;51.530;5.974;2022-08-07T05:39:07;102227.06;;;14.10;89.97
57562;BME280;43397;51.530;5.974;2022-08-07T05:41:33;102227.97;;;13.98;90.66
57562;BME280;43397;51.530;5.974;2022-08-07T05:44:00;102235.09;;;14.05;90.03
57562;BME280;43397;51.530;5.974;2022-08-07T05:46:26;102226.16;;;14.08;91.00
57562;BME280;43397;51.530;5.974;2022-08-07T05:48:52;102234.19;;;14.09;91.00
57562;BME280;43397;51.530;5.974;2022-08-07T05:51:20;102231.47;;;14.26;91.01
57562;BME280;43397;51.530;5.974;2022-08-07T05:53:46;102244.81;;;14.49;88.81
57562;BME280;43397;51.530;5.974;2022-08-07T05:56:12;102240.38;;;14.39;90.39
57562;BME280;43397;51.530;5.974;2022-08-07T05:58:41;102235.94;;;14.43;89.59
57562;BME280;43397;51.530;5.974;2022-08-07T06:01:12;102240.38;;;14.47;89.09
57562;BME280;43397;51.530;5.974;2022-08-07T06:03:42;102228.78;;;14.49;88.73
57562;BME280;43397;51.530;5.974;2022-08-07T06:06:10;102238.59;;;14.59;88.33
57562;BME280;43397;51.530;5.974;2022-08-07T06:08:38;102237.69;;;14.50;88.89
57562;BME280;43397;51.530;5.974;2022-08-07T06:11:05;102241.28;;;14.43;90.47
57562;BME280;43397;51.530;5.974;2022-08-07T06:13:33;102238.63;;;14.39;91.44
57562;BME280;43397;51.530;5.974;2022-08-07T06:16:00;102232.34;;;14.53;91.52
57562;BME280;43397;51.530;5.974;2022-08-07T06:18:28;102241.22;;;14.73;nan
57562;BME280;43397;51.530;5.974;2022-08-07T06:20:54;102238.56;;;14.69;90.61
57562;BME280;43397;51.530;5.974;2022-08-07T06:23:20;102230.53;;;14.76;90.63
57562;BME280;43397;51.530;5.974;2022-08-07T06:25:48;102243.00;;;14.79;91.48
57562;BME280;43397;51.530;5.974;2022-08-07T06:28:13;102238.50;;;14.89;89.69
57562;BME280;43397;51.530;5.974;2022-08-07T06:30:39;102230.44;;;14.95;89.47
57562;BME280;43397;51.530;5.974;2022-08-07T06:33:05;102233.97;;;15.03;89.46
57562;BME280;43397;51.530;5.974;2022-08-07T06:35:32;102233.03;;;15.16;89.90
57562;BME280;43397;51.530;5.974;2022-08-07T06:37:59;102233.03;;;15.18;89.49
57562;BME280;43397;51.530;5.974;2022-08-07T06:40:26;102229.41;;;15.22;89.05
57562;BME280;43397;51.530;5.974;2022-08-07T06:42:55;102231.13;;;15.31;89.32
57562;BME280;43397;51.530;5.974;2022-08-07T06:45:21;102242.66;;;15.43;89.43
57562;BME280;43397;51.530;5.974;2022-08-07T06:47:48;102239.94;;;15.57;88.71
57562;BME280;43397;51.530;5.974;2022-08-07T06:50:14;102239.03;;;15.55;89.08
57562;BME280;43397;51.530;5.974;2022-08-07T06:52:43;102234.53;;;15.60;89.42
57562;BME280;43397;51.530;5.974;2022-08-07T06:55:14;102235.38;;;15.72;89.73
57562;BME280;43397;51.530;5.974;2022-08-07T06:57:43;102229.94;;;15.82;90.87
57562;BME280;43397;51.530;5.974;2022-08-07T07:00:12;102237.13;;;15.77;90.22
57562;BME280;43397;51.530;5.974;2022-08-07T07:02:40;102234.38;;;15.87;91.29
57562;BME280;43397;51.530;5.974;2022-08-07T07:05:06;102237.00;;;15.94;90.40
57562;BME280;43397;51.530;5.974;2022-08-07T07:07:32;102241.44;;;15.94;88.84
57562;BME280;43397;51.530;5.974;2022-08-07T07:10:00;102229.75;;;16.06;88.72
57562;BME280;43397;51.530;5.974;2022-08-07T07:12:36;102232.00;;;16.47;88.08
57562;BME280;43397;51.530;5.974;2022-08-07T07:15:06;102228.97;;;16.82;84.77
57562;BME280;43397;51.530;5.974;2022-08-07T07:17:38;102219.63;;;17.13;83.70
57562;BME280;43397;51.530;5.974;2022-08-07T07:20:10;102230.81;;;17.44;81.86
57562;BME280;43397;51.530;5.974;2022-08-07T07:22:37;102232.19;;;17.73;80.71
57562;BME280;43397;51.530;5.974;2022-08-07T07:25:06;102227.28;;;17.99;78.58
57562;BME280;43397;51.530;5.974;2022-08-07T07:27:35;102238.75;;;18.09;77.62
57562;BME280;43397;51.530;5.974;2022-08-07T07:30:05;102227.81;;;18.20;76.37
57562;BME280;43397;51.530;5.974;2022-08-07T07:32:33;102228.50;;;18.31;76.45
57562;BME280;43397;51.530;5.974;2022-08-07T07:35:03;102237.31;;;18.41;76.48
57562;BME280;43397;51.530;5.974;2022-08-07T07:37:31;102229.00;;;18.53;75.86
57562;BME280;43397;51.530;5.974;2022-08-07T07:40:02;102235.91;;;18.66;74.43
57562;BME280;43397;51.530;5.974;2022-08-07T07:42:29;102226.88;;;18.70;73.56
57562;BME280;43397;51.530;5.974;2022-08-07T07:44:58;102235.59;;;18.83;73.33
57562;BME280;43397;51.530;5.974;2022-08-07T07:47:26;102230.06;;;18.89;71.62
57562;BME280;43397;51.530;5.974;2022-08-07T07:49:55;102231.56;;;19.04;71.76
57562;BME280;43397;51.530;5.974;2022-08-07T07:52:24;102233.91;;;19.21;71.13
57562;BME280;43397;51.530;5.974;2022-08-07T07:54:52;102230.91;;;19.33;69.96
57562;BME280;43397;51.530;5.974;2022-08-07T07:57:22;102220.94;;;19.37;68.90
57562;BME280;43397;51.530;5.974;2022-08-07T07:59:49;102214.19;;;19.57;68.78
57562;BME280;43397;51.530;5.974;2022-08-07T08:02:16;102218.41;;;19.68;68.14
57562;BME280;43397;51.530;5.974;2022-08-07T08:04:43;102215.66;;;19.71;67.71
57562;BME280;43397;51.530;5.974;2022-08-07T08:07:12;102210.50;;;19.61;66.00
57562;BME280;43397;51.530;5.974;2022-08-07T08:09:39;102206.69;;;19.32;66.35
57562;BME280;43397;51.530;5.974;2022-08-07T08:12:06;102203.13;;;19.31;65.16
57562;BME280;43397;51.530;5.974;2022-08-07T08:14:34;102205.72;;;19.35;65.74
57562;BME280;43397;51.530;5.974;2022-08-07T08:17:01;102208.94;;;19.50;69.25
57562;BME280;43397;51.530;5.974;2022-08-07T08:19:28;102207.13;;;19.51;64.94
57562;BME280;43397;51.530;5.974;2022-08-07T08:21:56;102199.13;;;19.48;67.77
57562;BME280;43397;51.530;5.974;2022-08-07T08:24:23;102212.00;;;19.74;69.53
57562;BME280;43397;51.530;5.974;2022-08-07T08:26:53;102199.28;;;19.79;64.92
57562;BME280;43397;51.530;5.974;2022-08-07T08:29:20;102201.94;;;20.17;66.58
57562;BME280;43397;51.530;5.974;2022-08-07T08:31:46;102201.69;;;20.59;65.92
57562;BME280;43397;51.530;5.974;2022-08-07T08:34:13;102197.56;;;20.77;66.88
57562;BME280;43397;51.530;5.974;2022-08-07T08:36:39;102195.16;;;20.97;66.40
57562;BME280;43397;51.530;5.974;2022-08-07T08:39:07;102201.69;;;21.20;64.03
57562;BME280;43397;51.530;5.974;2022-08-07T08:41:40;102198.72;;;21.27;60.73
57562;BME280;43397;51.530;5.974;2022-08-07T08:44:16;102200.03;;;21.44;62.23
57562;BME280;43397;51.530;5.974;2022-08-07T08:46:47;102201.09;;;21.66;62.70
57562;BME280;43397;51.530;5.974;2022-08-07T08:49:20;102200.25;;;21.64;61.92
57562;BME280;43397;51.530;5.974;2022-08-07T08:51:55;102204.19;;;21.82;60.51
57562;BME280;43397;51.530;5.974;2022-08-07T08:54:25;102198.72;;;21.84;59.99
57562;BME280;43397;51.530;5.974;2022-08-07T08:56:56;102196.09;;;22.07;60.46
57562;BME280;43397;51.530;5.974;2022-08-07T08:59:29;102200.75;;;22.04;63.02
57562;BME280;43397;51.530;5.974;2022-08-07T09:02:04;102198.91;;;22.31;61.33
57562;BME280;43397;51.530;5.974;2022-08-07T09:04:42;102194.63;;;22.49;57.45
57562;BME280;43397;51.530;5.974;2022-08-07T09:07:15;102200.13;;;22.47;56.16
57562;BME280;43397;51.530;5.974;2022-08-07T09:09:54;102199.06;;;22.51;57.39
57562;BME280;43397;51.530;5.974;2022-08-07T09:12:36;102207.31;;;22.73;55.24
57562;BME280;43397;51.530;5.974;2022-08-07T09:15:16;102197.97;;;22.80;55.48
57562;BME280;43397;51.530;5.974;2022-08-07T09:17:56;102198.72;;;22.84;53.15
57562;BME280;43397;51.530;5.974;2022-08-07T09:20:28;102195.03;;;22.87;52.45
57562;BME280;43397;51.530;5.974;2022-08-07T09:23:03;102197.06;;;23.05;54.15
57562;BME280;43397;51.530;5.974;2022-08-07T09:25:36;102202.94;;;23.16;50.17
57562;BME280;43397;51.530;5.974;2022-08-07T09:28:05;102195.53;;;23.22;52.25
57562;BME280;43397;51.530;5.974;2022-08-07T09:30:44;102200.63;;;23.29;49.94
57562;BME280;43397;51.530;5.974;2022-08-07T09:33:28;102191.78;;;23.24;50.92
57562;BME280;43397;51.530;5.974;2022-08-07T09:36:02;102193.88;;;23.39;53.47
57562;BME280;43397;51.530;5.974;2022-08-07T09:38:37;102188.38;;;23.19;48.83
57562;BME280;43397;51.530;5.974;2022-08-07T09:41:15;102184.59;;;22.99;49.83
57562;BME280;43397;51.530;5.974;2022-08-07T09:43:55;102179.19;;;22.99;53.73
57562;BME280;43397;51.530;5.974;2022-08-07T09:46:36;102177.16;;;23.50;53.31
57562;BME280;43397;51.530;5.974;2022-08-07T09:49:12;102179.34;;;23.62;48.38
57562;BME280;43397;51.530;5.974;2022-08-07T09:51:59;102171.41;;;23.80;46.49
57562;BME280;43397;51.530;5.974;2022-08-07T09:54:33;102177.41;;;23.66;48.01
57562;BME280;43397;51.530;5.974;2022-08-07T09:57:19;102167.34;;;23.90;49.55
57562;BME280;43397;51.530;5.974;2022-08-07T10:00:05;102164.69;;;23.89;47.64
57562;BME280;43397;51.530;5.974;2022-08-07T10:02:51;102170.28;;;24.27;47.74
57562;BME280;43397;51.530;5.974;2022-08-07T10:05:36;102159.53;;;24.44;42.92
57562;BME280;43397;51.530;5.974;2022-08-07T10:08:20;102157.69;;;24.44;41.06
57562;BME280;43397;51.530;5.974;2022-08-07T10:10:58;102151.50;;;24.41;43.68
57562;BME280;43397;51.530;5.974;2022-08-07T10:13:38;102162.28;;;24.03;44.41
57562;BME280;43397;51.530;5.974;2022-08-07T10:16:20;102154.25;;;24.20;46.20
57562;BME280;43397;51.530;5.974;2022-08-07T10:19:08;102147.19;;;24.57;47.53
57562;BME280;43397;51.530;5.974;2022-08-07T10:21:50;102139.56;;;24.66;42.62
57562;BME280;43397;51.530;5.974;2022-08-07T10:24:27;102150.72;;;24.97;47.43
57562;BME280;43397;51.530;5.974;2022-08-07T10:27:09;102140.84;;;25.14;42.00
57562;BME280;43397;51.530;5.974;2022-08-07T10:29:58;102143.47;;;24.98;45.72
57562;BME280;43397;51.530;5.974;2022-08-07T10:32:55;102141.75;;;24.76;44.82
57562;BME280;43397;51.530;5.974;2022-08-07T10:35:28;102132.84;;;25.11;45.72
57562;BME280;43397;51.530;5.974;2022-08-07T10:38:05;102145.13;;;25.19;41.83
57562;BME280;43397;51.530;5.974;2022-08-07T10:40:42;102147.00;;;25.55;41.82
57562;BME280;43397;51.530;5.974;2022-08-07T10:43:14;102141.25;;;25.79;40.41
57562;BME280;43397;51.530;5.974;2022-08-07T10:45:45;102140.44;;;25.77;40.37
57562;BME280;43397;51.530;5.974;2022-08-07T10:48:21;102132.75;;;25.68;41.44
57562;BME280;43397;51.530;5.974;2022-08-07T10:50:53;102125.13;;;25.57;43.28
57562;BME280;43397;51.530;5.974;2022-08-07T10:53:25;102122.97;;;25.63;42.42
57562;BME280;43397;51.530;5.974;2022-08-07T10:56:01;102126.59;;;25.81;43.69
57562;BME280;43397;51.530;5.974;2022-08-07T10:58:44;102118.50;;;25.97;42.69
57562;BME280;43397;51.530;5.974;2022-08-07T11:01:27;102117.25;;;26.04;42.65
57562;BME280;43397;51.530;5.974;2022-08-07T11:03:57;102118.94;;;25.90;45.72
57562;BME280;43397;51.530;5.974;2022-08-07T11:06:32;102105.53;;;25.50;41.93
57562;BME280;43397;51.530;5.974;2022-08-07T11:09:04;102116.41;;;25.68;43.01
57562;BME280;43397;51.530;5.974;2022-08-07T11:11:35;102104.88;;;25.97;42.23
57562;BME280;43397;51.530;5.974;2022-08-07T11:14:09;102109.69;;;25.57;42.93
57562;BME280;43397;51.530;5.974;2022-08-07T11:16:42;102102.31;;;25.77;42.50
57562;BME280;43397;51.530;5.974;2022-08-07T11:19:16;102096.06;;;26.10;41.50
57562;BME280;43397;51.530;5.974;2022-08-07T11:21:51;102099.09;;;26.21;40.07
57562;BME280;43397;51.530;5.974;2022-08-07T11:24:22;102095.91;;;25.78;40.73
57562;BME280;43397;51.530;5.974;2022-08-07T11:26:56;102083.97;;;25.98;39.92
57562;BME280;43397;51.530;5.974;2022-08-07T11:29:32;102081.03;;;26.36;40.57
57562;BME280;43397;51.530;5.974;2022-08-07T11:32:04;102080.28;;;26.32;43.25
57562;BME280;43397;51.530;5.974;2022-08-07T11:34:38;102084.31;;;25.57;40.00
57562;BME280;43397;51.530;5.974;2022-08-07T11:37:12;102084.59;;;26.20;41.02
57562;BME280;43397;51.530;5.974;2022-08-07T11:39:50;102074.25;;;26.43;42.49
57562;BME280;43397;51.530;5.974;2022-08-07T11:42:22;102080.41;;;26.31;38.95
57562;BME280;43397;51.530;5.974;2022-08-07T11:44:54;102073.56;;;26.39;39.83
57562;BME280;43397;51.530;5.974;2022-08-07T11:47:49;102079.31;;;26.66;38.31
57562;BME280;43397;51.530;5.974;2022-08-07T11:50:32;102081.81;;;27.03;38.80
57562;BME280;43397;51.530;5.974;2022-08-07T11:53:12;102078.91;;;26.90;38.69
57562;BME280;43397;51.530;5.974;2022-08-07T11:55:54;102072.78;;;27.17;39.72
57562;BME280;43397;51.530;5.974;2022-08-07T11:58:29;102064.44;;;26.56;39.99
57562;BME280;43397;51.530;5.974;2022-08-07T12:01:16;102076.06;;;27.23;40.05
57562;BME280;43397;51.530;5.974;2022-08-07T12:04:05;102064.72;;;27.76;39.39
57562;BME280;43397;51.530;5.974;2022-08-07T12:06:44;102059.25;;;28.06;38.13
57562;BME280;43397;51.530;5.974;2022-08-07T12:09:16;102067.31;;;27.93;35.72
57562;BME280;43397;51.530;5.974;2022-08-07T12:11:46;102068.63;;;27.72;34.50
57562;BME280;43397;51.530;5.974;2022-08-07T12:14:14;102069.13;;;28.23;39.08
57562;BME280;43397;51.530;5.974;2022-08-07T12:16:45;102062.47;;;27.98;36.53
57562;BME280;43397;51.530;5.974;2022-08-07T12:19:17;102068.19;;;27.94;37.54
57562;BME280;43397;51.530;5.974;2022-08-07T12:21:51;102065.50;;;27.63;35.14
57562;BME280;43397;51.530;5.974;2022-08-07T12:24:26;102069.09;;;27.94;36.40
57562;BME280;43397;51.530;5.974;2022-08-07T12:27:00;102054.56;;;28.22;37.33
57562;BME280;43397;51.530;5.974;2022-08-07T12:29:32;102053.50;;;27.80;35.52
57562;BME280;43397;51.530;5.974;2022-08-07T12:32:06;102054.28;;;28.27;34.71
57562;BME280;43397;51.530;5.974;2022-08-07T12:34:36;102053.06;;;28.45;34.46
57562;BME280;43397;51.530;5.974;2022-08-07T12:37:03;102055.13;;;28.70;34.35
57562;BME280;43397;51.530;5.974;2022-08-07T12:39:34;102041.94;;;28.34;34.48
57562;BME280;43397;51.530;5.974;2022-08-07T12:42:01;102051.84;;;28.51;35.24
57562;BME280;43397;51.530;5.974;2022-08-07T12:44:30;102044.72;;;28.90;33.20
57562;BME280;43397;51.530;5.974;2022-08-07T12:47:08;102044.50;;;28.93;34.93
57562;BME280;43397;51.530;5.974;2022-08-07T12:49:45;102040.34;;;29.00;33.96
57562;BME280;43397;51.530;5.974;2022-08-07T12:52:15;102037.84;;;28.13;34.97
57562;BME280;43397;51.530;5.974;2022-08-07T12:54:50;102038.91;;;28.67;34.17
57562;BME280;43397;51.530;5.974;2022-08-07T12:57:21;102044.81;;;28.88;35.10
57562;BME280;43397;51.530;5.974;2022-08-07T12:59:52;102039.59;;;28.57;31.63
57562;BME280;43397;51.530;5.974;2022-08-07T13:02:45;102034.06;;;28.29;33.23
57562;BME280;43397;51.530;5.974;2022-08-07T13:05:34;102029.97;;;28.51;33.26
57562;BME280;43397;51.530;5.974;2022-08-07T13:08:14;102024.19;;;28.56;31.51